MKW weather

Rendani Airport
Manokwari-Papua Island, West Papua, Indonesia

Public forecast

Using degrees Celsius for public forecast. Weather courtesy of forecast.io.

Closest aviation weather report (METAR) to Rendani Airport

Closest report is Frans Kaisiepo Airport, 124.9 nm (231.3 km) E. Retrieved 2019/10/21 09:00 UTC (22 minutes ago):

WABB 210900Z 03003KT 9000 FEW018 26/25 Q1008 NOSIG

Aviation forecast (TAF) for Rendani Airport

Forecast is more than 12 hours old.

Retrieved 2013/03/11 12:00 UTC (7 years ago):

TAF WASR 111100Z 1112/1212 00000KT 5000 HZ SCT015 TEMPO 1112/1118 4000 RA FEW013CB BECMG 1200/1202 30012KT 9999 TEMPO 1206/1210 6000 RA FEW013CB